Time;durP1;ratioP1;P1;durP2;ratioP2;P2;SDS_P1;SDS_P2;PMS_P1;PMS_P2;Temp;Humidity;BMP_temperature;BMP_pressure;BME280_temperature;BME280_humidity;BME280_pressure;Samples;Min_cycle;Max_cycle;Signal;HPM_P1;HPM_P2
2023/08/06 00:01:10;;;;;;;3.37;2.70;;;;;;;16.62;100.00;100263.38;5231804;28;20029;-73
2023/08/06 00:03:42;;;;;;;6.33;2.80;;;;;;;16.54;100.00;100259.66;5211227;28;20388;-73
2023/08/06 00:06:13;;;;;;;8.07;3.07;;;;;;;16.53;100.00;100259.81;5237294;28;20025;-73
2023/08/06 00:08:44;;;;;;;3.90;2.40;;;;;;;16.52;100.00;100258.13;5233989;28;20566;-73
2023/08/06 00:11:15;;;;;;;4.07;2.87;;;;;;;16.68;100.00;100254.88;5215041;28;20144;-73
2023/08/06 00:13:47;;;;;;;4.67;2.97;;;;;;;16.68;100.00;100263.63;5233992;28;20562;-73
2023/08/06 00:16:18;;;;;;;5.53;2.90;;;;;;;16.68;100.00;100255.72;5231556;28;20068;-73
2023/08/06 00:18:49;;;;;;;5.70;3.50;;;;;;;16.50;100.00;100213.34;5233394;28;20508;-74
2023/08/06 00:21:21;;;;;;;4.47;2.70;;;;;;;16.74;100.00;100250.81;5233196;28;20025;-73
2023/08/06 00:23:52;;;;;;;3.43;2.80;;;;;;;16.69;100.00;100246.78;5216739;28;20566;-74
2023/08/06 00:26:24;;;;;;;5.50;3.13;;;;;;;16.74;100.00;100248.97;5212620;28;20120;-71
2023/08/06 00:28:55;;;;;;;4.17;2.60;;;;;;;16.62;100.00;100245.69;5214049;28;20656;-72
2023/08/06 00:31:27;;;;;;;4.57;2.80;;;;;;;16.62;100.00;100248.34;5223440;28;20034;-73
2023/08/06 00:33:58;;;;;;;4.77;2.67;;;;;;;16.61;100.00;100248.50;5225897;28;20751;-73
2023/08/06 00:36:29;;;;;;;4.00;2.60;;;;;;;16.61;100.00;100246.69;5227269;28;20052;-72
2023/08/06 00:39:01;;;;;;;4.77;2.53;;;;;;;16.63;100.00;100242.09;5227439;28;20036;-73
2023/08/06 00:41:32;;;;;;;9.80;2.87;;;;;;;16.61;100.00;100236.13;5213277;28;20030;-74
2023/08/06 00:44:04;;;;;;;4.93;2.77;;;;;;;16.52;100.00;100242.28;5217089;28;20044;-74
2023/08/06 00:46:35;;;;;;;4.40;2.20;;;;;;;16.66;100.00;100244.44;5225202;28;20030;-71
2023/08/06 00:49:06;;;;;;;7.10;2.47;;;;;;;16.58;100.00;100244.34;5232994;28;20369;-73
2023/08/06 00:51:38;;;;;;;3.90;2.20;;;;;;;16.53;100.00;100238.66;5231211;28;20056;-73
2023/08/06 00:54:10;;;;;;;5.43;2.70;;;;;;;16.47;100.00;100223.38;5231581;28;20021;-73
2023/08/06 00:56:42;;;;;;;6.33;2.40;;;;;;;16.41;100.00;100230.06;5225336;28;20033;-73
2023/08/06 00:59:14;;;;;;;4.60;2.90;;;;;;;16.63;100.00;100239.44;5211835;28;20096;-73
2023/08/06 01:01:45;;;;;;;4.37;3.17;;;;;;;16.62;100.00;100239.56;5211660;28;20061;-72
2023/08/06 01:04:16;;;;;;;3.80;2.10;;;;;;;16.57;100.00;100238.22;5219107;28;20048;-74
2023/08/06 01:07:11;;;;;;;4.00;2.20;;;;;;;16.72;100.00;100234.25;5267650;23;20076;-73
2023/08/06 01:09:51;;;;;;;6.38;2.78;;;;;;;16.71;100.00;100235.22;5197972;28;20092;-73
2023/08/06 01:12:38;;;;;;;5.63;2.37;;;;;;;16.77;100.00;100237.28;5230308;28;20454;-73
2023/08/06 01:15:27;;;;;;;5.37;2.40;;;;;;;16.77;100.00;100234.66;5229220;28;20048;-72
2023/08/06 01:17:59;;;;;;;4.70;2.10;;;;;;;16.72;100.00;100234.25;5229356;28;20388;-73
2023/08/06 01:20:31;;;;;;;4.13;2.60;;;;;;;16.54;100.00;100229.75;5229331;28;20071;-72
2023/08/06 01:23:02;;;;;;;8.07;2.60;;;;;;;16.47;100.00;100236.59;5228753;28;20120;-71
2023/08/06 01:25:39;;;;;;;4.70;2.40;;;;;;;16.44;100.00;100230.63;5228422;28;20025;-73
2023/08/06 01:28:27;;;;;;;4.70;2.33;;;;;;;16.65;100.00;100224.25;5229170;28;20059;-73
2023/08/06 01:31:04;;;;;;;5.93;3.00;;;;;;;16.62;100.00;100237.78;5229659;28;20014;-73
2023/08/06 01:33:43;;;;;;;4.60;2.40;;;;;;;16.71;100.00;100228.13;5228734;28;20442;-72
2023/08/06 01:36:19;;;;;;;3.57;2.13;;;;;;;16.83;100.00;100230.56;5229935;28;20037;-73
2023/08/06 01:38:53;;;;;;;5.63;2.43;;;;;;;16.69;100.00;100230.06;5229025;28;20112;-72
2023/08/06 01:41:24;;;;;;;5.17;2.97;;;;;;;16.66;100.00;100218.00;5229648;28;20365;-73
2023/08/06 01:43:56;;;;;;;4.10;2.73;;;;;;;16.71;100.00;100224.63;5230096;28;20036;-73
2023/08/06 01:46:27;;;;;;;5.27;2.63;;;;;;;16.72;100.00;100228.97;5227982;28;20029;-73
2023/08/06 01:48:58;;;;;;;6.20;2.50;;;;;;;16.72;100.00;100221.03;5228355;28;20026;-72
2023/08/06 01:51:30;;;;;;;5.90;2.30;;;;;;;16.81;100.00;100218.31;5229061;28;20026;-71
2023/08/06 01:54:01;;;;;;;5.03;2.83;;;;;;;16.88;100.00;100225.66;5228840;28;20040;-72
2023/08/06 01:56:32;;;;;;;4.43;2.50;;;;;;;16.95;100.00;100225.91;5241586;28;20128;-73
2023/08/06 01:59:04;;;;;;;4.47;2.10;;;;;;;16.86;100.00;100227.63;5229780;28;20052;-73
2023/08/06 02:01:35;;;;;;;3.90;2.20;;;;;;;16.76;100.00;100223.22;5228530;28;20038;-73
2023/08/06 02:04:06;;;;;;;5.40;2.63;;;;;;;16.73;100.00;100225.34;5229562;28;20021;-73
2023/08/06 02:06:38;;;;;;;2.97;2.30;;;;;;;16.68;100.00;100226.63;5228324;28;20099;-72
2023/08/06 02:09:09;;;;;;;4.63;2.20;;;;;;;16.66;100.00;100223.28;5229843;28;20530;-73
2023/08/06 02:11:40;;;;;;;6.33;3.00;;;;;;;16.75;100.00;100228.66;5228083;28;20025;-73
2023/08/06 02:14:11;;;;;;;4.30;2.37;;;;;;;16.71;100.00;100236.06;5228569;28;20049;-73
2023/08/06 02:16:43;;;;;;;4.70;2.30;;;;;;;16.74;100.00;100237.59;5228753;28;20471;-71
2023/08/06 02:19:14;;;;;;;5.10;2.17;;;;;;;16.67;100.00;100229.38;5228355;28;20037;-73
2023/08/06 02:21:46;;;;;;;4.67;2.30;;;;;;;16.57;100.00;100232.09;5229316;28;20029;-71
2023/08/06 02:24:17;;;;;;;4.80;2.00;;;;;;;16.65;100.00;100226.91;5241815;28;20138;-72
2023/08/06 02:26:50;;;;;;;6.07;2.53;;;;;;;16.71;100.00;100224.63;5237899;28;20021;-71
2023/08/06 02:29:22;;;;;;;4.75;2.30;;;;;;;16.70;100.00;100234.41;5245991;28;20029;-73
2023/08/06 02:31:53;;;;;;;3.43;2.70;;;;;;;16.60;100.00;100229.16;5231611;28;20026;-73
2023/08/06 02:34:24;;;;;;;6.07;2.70;;;;;;;16.68;100.00;100229.28;5231859;28;20480;-73
2023/08/06 02:36:56;;;;;;;6.47;3.03;;;;;;;16.75;100.00;100231.31;5231921;28;20120;-72
2023/08/06 02:39:27;;;;;;;4.43;3.00;;;;;;;16.68;100.00;100216.06;5243572;28;20048;-72
2023/08/06 02:41:58;;;;;;;6.33;3.03;;;;;;;16.69;100.00;100233.56;5215702;28;20022;-72
2023/08/06 02:44:29;;;;;;;4.50;2.93;;;;;;;16.61;100.00;100225.53;5231741;28;20018;-72
2023/08/06 02:47:01;;;;;;;6.00;2.63;;;;;;;16.77;100.00;100229.34;5230365;28;20026;-71
2023/08/06 02:49:32;;;;;;;6.50;2.53;;;;;;;16.67;100.00;100224.94;5229924;28;20032;-72
2023/08/06 02:52:04;;;;;;;3.23;2.10;;;;;;;16.76;100.00;100222.38;5231123;28;20018;-71
2023/08/06 02:54:35;;;;;;;6.33;2.60;;;;;;;16.75;100.00;100218.09;5232067;28;20113;-72
2023/08/06 02:57:06;;;;;;;3.20;2.10;;;;;;;16.76;100.00;100222.38;5230751;28;20103;-72
2023/08/06 02:59:38;;;;;;;5.33;2.33;;;;;;;16.86;100.00;100217.88;5232846;28;20108;-73
2023/08/06 03:02:09;;;;;;;4.47;2.60;;;;;;;16.79;100.00;100217.63;5234011;28;20061;-73
2023/08/06 03:04:40;;;;;;;3.90;2.33;;;;;;;16.80;100.00;100218.47;5235021;28;20048;-72
2023/08/06 03:07:12;;;;;;;4.40;2.17;;;;;;;16.81;100.00;100214.84;5235041;28;20100;-70
2023/08/06 03:09:43;;;;;;;3.60;2.33;;;;;;;16.83;100.00;100219.97;5234725;28;20121;-72
2023/08/06 03:12:14;;;;;;;5.67;2.37;;;;;;;16.86;100.00;100209.94;5234943;28;20022;-72
2023/08/06 03:14:46;;;;;;;5.67;2.50;;;;;;;16.89;100.00;100217.59;5235134;28;20056;-71
2023/08/06 03:17:17;;;;;;;5.33;2.43;;;;;;;16.87;100.00;100216.91;5233179;28;20112;-72
2023/08/06 03:19:48;;;;;;;6.73;2.80;;;;;;;16.90;100.00;100221.88;5235112;28;20107;-72
2023/08/06 03:22:19;;;;;;;4.23;2.17;;;;;;;16.82;100.00;100227.09;5238939;28;20056;-70
2023/08/06 03:24:51;;;;;;;6.13;2.80;;;;;;;16.76;100.00;100220.59;5243774;28;20105;-72
2023/08/06 03:27:23;;;;;;;5.37;2.70;;;;;;;16.75;100.00;100218.09;5245708;28;20032;-71
2023/08/06 03:29:54;;;;;;;5.10;3.30;;;;;;;16.66;100.00;100222.44;5235408;28;20117;-72
2023/08/06 03:32:25;;;;;;;7.20;3.20;;;;;;;16.74;100.00;100225.19;5231957;28;20076;-73
2023/08/06 03:34:56;;;;;;;8.87;2.83;;;;;;;16.76;100.00;100223.22;5234897;28;20109;-73
2023/08/06 03:37:28;;;;;;;7.90;2.77;;;;;;;16.69;100.00;100225.63;5234003;28;20033;-72
2023/08/06 03:39:59;;;;;;;6.40;3.43;;;;;;;16.68;100.00;100226.63;5246068;28;20519;-71
2023/08/06 03:42:30;;;;;;;5.03;2.73;;;;;;;16.78;100.00;100231.00;5234313;28;20033;-71
2023/08/06 03:45:02;;;;;;;3.73;2.70;;;;;;;16.66;100.00;100228.56;5233720;28;20033;-72
2023/08/06 03:47:34;;;;;;;7.47;3.17;;;;;;;16.64;100.00;100212.03;5233817;28;20387;-72
2023/08/06 03:50:06;;;;;;;6.50;2.93;;;;;;;16.77;100.00;100224.06;5234439;28;20035;-71
2023/08/06 03:52:37;;;;;;;5.20;2.53;;;;;;;16.75;100.00;100226.03;5233825;28;20029;-72
2023/08/06 03:55:08;;;;;;;10.53;2.90;;;;;;;16.84;100.00;100229.59;5233654;28;20040;-71
2023/08/06 03:57:39;;;;;;;5.40;2.30;;;;;;;16.73;100.00;100235.91;5232702;28;20029;-72
2023/08/06 04:00:12;;;;;;;3.93;2.60;;;;;;;16.62;100.00;100213.97;5233222;28;20080;-71
2023/08/06 04:02:43;;;;;;;5.47;2.70;;;;;;;16.73;100.00;100233.25;5230967;28;20033;-71
2023/08/06 04:05:15;;;;;;;6.63;2.73;;;;;;;16.72;100.00;100232.41;5233276;28;20040;-71
2023/08/06 04:07:46;;;;;;;7.27;3.10;;;;;;;16.73;100.00;100238.56;5232527;28;20135;-72
2023/08/06 04:10:17;;;;;;;4.77;2.80;;;;;;;16.81;100.00;100234.19;5233849;28;20200;-71
2023/08/06 04:12:49;;;;;;;13.57;3.40;;;;;;;16.88;100.00;100234.44;5233453;28;20040;-71
2023/08/06 04:15:20;;;;;;;7.53;2.80;;;;;;;16.92;100.00;100235.81;5233088;28;20037;-71
2023/08/06 04:17:51;;;;;;;4.70;2.63;;;;;;;16.93;100.00;100240.09;5232771;28;20529;-71
2023/08/06 04:20:23;;;;;;;8.97;3.13;;;;;;;16.86;100.00;100239.03;5231637;28;20036;-71
2023/08/06 04:22:54;;;;;;;4.80;2.53;;;;;;;16.78;100.00;100241.59;5232380;28;20029;-71
2023/08/06 04:25:26;;;;;;;6.10;2.90;;;;;;;16.73;100.00;100243.84;5232914;28;20029;-71
2023/08/06 04:27:57;;;;;;;7.00;2.60;;;;;;;16.71;100.00;100246.63;5231937;28;20034;-72
2023/08/06 04:30:28;;;;;;;5.57;2.90;;;;;;;16.61;100.00;100246.69;5233133;28;20575;-72
2023/08/06 04:33:00;;;;;;;6.67;2.90;;;;;;;16.75;100.00;100248.00;5230816;28;20029;-71
2023/08/06 04:35:31;;;;;;;4.50;3.37;;;;;;;16.61;100.00;100246.69;5233115;28;20033;-70
2023/08/06 04:38:02;;;;;;;6.57;3.23;;;;;;;16.61;100.00;100251.97;5232738;28;20037;-71
2023/08/06 04:40:35;;;;;;;7.10;3.20;;;;;;;16.71;100.00;100256.38;5232861;28;20025;-71
2023/08/06 04:43:06;;;;;;;3.20;2.63;;;;;;;16.64;100.00;100256.13;5232956;28;20112;-72
2023/08/06 04:45:38;;;;;;;6.37;3.43;;;;;;;16.58;100.00;100249.63;5231852;28;20124;-71
2023/08/06 04:48:09;;;;;;;4.83;3.80;;;;;;;16.52;100.00;100253.69;5232914;28;20059;-71
2023/08/06 04:50:44;;;;;;;10.97;3.23;;;;;;;16.85;100.00;100257.69;5231527;28;20507;-72
2023/08/06 04:53:16;;;;;;;5.00;3.57;;;;;;;16.62;100.00;100258.91;5232213;28;20056;-72
2023/08/06 04:55:47;;;;;;;5.63;3.77;;;;;;;16.75;100.00;100263.03;5232962;28;20048;-72
2023/08/06 04:58:19;;;;;;;5.27;3.63;;;;;;;16.83;100.00;100264.94;5244868;28;20026;-69
2023/08/06 05:00:50;;;;;;;6.50;3.33;;;;;;;16.88;100.00;100265.31;5237212;28;20032;-70
2023/08/06 05:03:22;;;;;;;7.33;4.27;;;;;;;16.78;100.00;100260.09;5237981;28;20137;-71
2023/08/06 05:05:53;;;;;;;4.63;3.30;;;;;;;16.97;100.00;100268.88;5232261;28;20049;-72
2023/08/06 05:08:25;;;;;;;6.03;3.47;;;;;;;16.93;100.00;100274.47;5232788;28;20033;-71
2023/08/06 05:10:56;;;;;;;7.47;4.13;;;;;;;16.82;100.00;100274.69;5233558;28;20087;-72
2023/08/06 05:13:27;;;;;;;10.43;5.07;;;;;;;16.80;100.00;100274.00;5240641;28;20071;-72
2023/08/06 05:15:59;;;;;;;7.17;4.40;;;;;;;16.95;100.00;100278.81;5231788;28;20373;-72
2023/08/06 05:18:30;;;;;;;4.10;3.70;;;;;;;17.00;100.00;100280.00;5232460;28;20037;-72
2023/08/06 05:21:01;;;;;;;7.10;3.80;;;;;;;16.96;100.00;100280.47;5231951;28;20120;-72
2023/08/06 05:23:33;;;;;;;4.97;4.17;;;;;;;16.97;100.00;100279.47;5232068;28;20064;-72
2023/08/06 05:26:04;;;;;;;8.73;5.10;;;;;;;16.97;100.00;100282.13;5231528;28;20033;-72
2023/08/06 05:28:35;;;;;;;7.20;4.67;;;;;;;16.93;100.00;100282.41;5231369;28;20052;-72
2023/08/06 05:31:07;;;;;;;4.83;4.00;;;;;;;17.01;100.00;100281.69;5228666;28;20030;-71
2023/08/06 05:33:38;;;;;;;6.50;4.40;;;;;;;17.07;100.00;100288.19;5231556;28;20034;-72
2023/08/06 05:36:09;;;;;;;7.33;4.83;;;;;;;17.12;100.00;100293.88;5232295;28;20037;-73
2023/08/06 05:38:41;;;;;;;8.37;3.97;;;;;;;17.25;100.00;100303.28;5231887;28;20041;-72
2023/08/06 05:41:13;;;;;;;4.67;3.87;;;;;;;17.24;100.00;100306.94;5231506;28;20613;-72
2023/08/06 05:43:44;;;;;;;6.87;3.93;;;;;;;17.26;100.00;100302.31;5232143;28;20029;-73
2023/08/06 05:46:16;;;;;;;5.70;3.57;;;;;;;17.24;100.00;100314.88;5231104;28;20077;-70
2023/08/06 05:48:47;;;;;;;5.20;4.00;;;;;;;17.25;100.00;100320.00;5231813;28;20113;-72
2023/08/06 05:51:19;;;;;;;6.63;3.83;;;;;;;17.36;100.00;100328.72;5231662;28;20188;-72
2023/08/06 05:53:50;;;;;;;7.90;4.67;;;;;;;17.36;100.00;100321.63;5232025;28;20025;-72
2023/08/06 05:56:21;;;;;;;4.73;3.70;;;;;;;17.35;100.00;100325.22;5231356;28;20114;-71
2023/08/06 05:58:53;;;;;;;6.93;4.27;;;;;;;17.39;100.00;100329.25;5231969;28;20120;-71
2023/08/06 06:01:24;;;;;;;8.53;4.13;;;;;;;17.41;100.00;100335.22;5228580;28;20040;-72
2023/08/06 06:03:55;;;;;;;10.10;5.50;;;;;;;17.37;100.00;100328.56;5231927;28;20034;-72
2023/08/06 06:06:27;;;;;;;10.80;5.97;;;;;;;17.22;100.00;100338.84;5231732;28;20041;-72
2023/08/06 06:08:58;;;;;;;7.80;4.47;;;;;;;17.28;100.00;100342.69;5231594;28;20477;-72
2023/08/06 06:11:29;;;;;;;6.23;4.27;;;;;;;17.30;100.00;100340.72;5231442;28;20099;-72
2023/08/06 06:14:00;;;;;;;4.97;4.03;;;;;;;17.31;100.00;100352.16;5230882;28;20034;-71
2023/08/06 06:16:33;;;;;;;5.73;3.87;;;;;;;17.30;100.00;100353.94;5229168;28;20025;-73
2023/08/06 06:19:05;;;;;;;7.47;3.87;;;;;;;17.48;100.00;100355.78;5231268;28;20460;-72
2023/08/06 06:21:37;;;;;;;6.73;3.77;;;;;;;17.50;100.00;100365.28;5231117;28;20108;-72
2023/08/06 06:24:09;;;;;;;4.80;3.77;;;;;;;17.44;100.00;100360.56;5230669;28;20029;-71
2023/08/06 06:26:40;;;;;;;6.67;4.20;;;;;;;17.37;100.00;100378.00;5231543;28;20407;-70
2023/08/06 06:29:11;;;;;;;13.23;3.97;;;;;;;17.47;100.00;100375.31;5231583;28;20037;-73
2023/08/06 06:31:43;;;;;;;5.17;4.27;;;;;;;17.27;100.00;100356.91;5230607;28;20040;-72
2023/08/06 06:34:14;;;;;;;6.60;4.33;;;;;;;17.38;100.00;100374.41;5232415;28;20030;-73
2023/08/06 06:36:45;;;;;;;4.77;3.83;;;;;;;17.37;100.00;100381.50;5235118;28;20120;-73
2023/08/06 06:39:17;;;;;;;6.20;4.17;;;;;;;17.34;100.00;100387.09;5235293;28;20052;-72
2023/08/06 06:41:49;;;;;;;8.43;3.63;;;;;;;17.27;100.00;100384.22;5234981;28;20026;-72
2023/08/06 06:44:20;;;;;;;4.50;3.33;;;;;;;17.34;100.00;100394.19;5235824;28;20036;-72
2023/08/06 06:46:52;;;;;;;4.10;2.33;;;;;;;17.29;100.00;100392.84;5234502;28;20376;-72
2023/08/06 06:49:23;;;;;;;3.00;1.40;;;;;;;17.11;100.00;100395.41;5234730;28;20091;-72
2023/08/06 06:51:54;;;;;;;2.13;0.90;;;;;;;17.03;100.00;100403.22;5234940;28;20076;-71
2023/08/06 06:54:25;;;;;;;0.60;0.53;;;;;;;16.98;100.00;100401.03;5234764;28;20029;-73
2023/08/06 06:56:57;;;;;;;2.03;0.90;;;;;;;16.92;100.00;100407.72;5241735;28;20127;-72
2023/08/06 06:59:28;;;;;;;1.00;0.77;;;;;;;16.84;100.00;100410.25;5239729;28;20491;-73
2023/08/06 07:01:59;;;;;;;1.07;0.70;;;;;;;16.77;100.00;100417.09;5244086;28;20034;-73
2023/08/06 07:04:31;;;;;;;3.37;0.97;;;;;;;16.78;100.00;100430.16;5234944;28;20037;-74
2023/08/06 07:07:02;;;;;;;0.83;0.60;;;;;;;16.80;100.00;100424.72;5234671;28;20691;-71
2023/08/06 07:09:33;;;;;;;4.50;1.00;;;;;;;16.78;100.00;100431.97;5235058;28;20112;-73
2023/08/06 07:12:05;;;;;;;2.07;0.90;;;;;;;16.75;100.00;100433.09;5235182;28;20021;-72
2023/08/06 07:14:36;;;;;;;1.83;1.20;;;;;;;16.60;100.00;100435.34;5254110;28;20120;-73
2023/08/06 07:17:08;;;;;;;2.40;1.27;;;;;;;16.66;100.00;100448.00;5253326;28;20040;-72
2023/08/06 07:19:39;;;;;;;2.47;1.13;;;;;;;16.62;100.00;100449.25;5239324;28;20029;-72
2023/08/06 07:22:10;;;;;;;2.17;1.47;;;;;;;16.76;100.00;100460.38;5234730;28;20038;-71
2023/08/06 07:24:42;;;;;;;2.27;1.50;;;;;;;16.83;100.00;100457.97;5234370;28;20033;-72
2023/08/06 07:27:13;;;;;;;1.87;1.33;;;;;;;16.75;100.00;100461.34;5234629;28;20112;-71
2023/08/06 07:29:44;;;;;;;3.10;1.77;;;;;;;16.65;100.00;100464.03;5234283;28;20034;-72
2023/08/06 07:32:15;;;;;;;2.63;2.03;;;;;;;16.50;100.00;100469.72;5233854;28;20067;-72
2023/08/06 07:34:47;;;;;;;3.20;2.50;;;;;;;16.54;100.00;100473.78;5233606;28;20026;-72
2023/08/06 07:37:18;;;;;;;2.30;2.10;;;;;;;16.56;100.00;100476.28;5232785;28;20124;-72
2023/08/06 07:39:49;;;;;;;4.73;2.37;;;;;;;16.63;100.00;100484.47;5233386;28;20037;-72
2023/08/06 07:42:21;;;;;;;4.27;2.50;;;;;;;16.61;100.00;100484.63;5234349;28;20029;-73
2023/08/06 07:44:56;;;;;;;6.00;2.50;;;;;;;16.62;100.00;100496.00;5234073;28;20041;-73
2023/08/06 07:47:27;;;;;;;4.43;2.77;;;;;;;16.43;100.00;100493.25;5233826;28;20029;-73
2023/08/06 07:49:59;;;;;;;3.83;2.80;;;;;;;16.41;100.00;100499.63;5233783;28;20068;-73
2023/08/06 07:52:30;;;;;;;3.63;2.80;;;;;;;16.59;100.00;100497.13;5233592;28;20464;-74
2023/08/06 07:55:04;;;;;;;7.50;3.03;;;;;;;16.60;100.00;100498.78;5234149;28;20087;-74
2023/08/06 07:57:36;;;;;;;5.13;3.40;;;;;;;16.57;100.00;100496.44;5234119;28;20052;-71
2023/08/06 08:00:07;;;;;;;5.60;4.10;;;;;;;16.57;100.00;100504.38;5233024;28;20048;-74
2023/08/06 08:02:39;;;;;;;5.83;3.60;;;;;;;16.44;100.00;100500.19;5247488;28;20025;-74
2023/08/06 08:05:10;;;;;;;4.27;3.33;;;;;;;16.44;100.00;100502.03;5251672;28;20023;-73
2023/08/06 08:07:41;;;;;;;8.00;3.03;;;;;;;16.48;100.00;100502.56;5233774;28;20179;-74
2023/08/06 08:10:13;;;;;;;4.77;2.80;;;;;;;16.60;100.00;100501.44;5232241;28;20037;-74
2023/08/06 08:12:47;;;;;;;6.73;3.53;;;;;;;16.65;100.00;100501.03;5233928;28;20025;-74
2023/08/06 08:15:18;;;;;;;7.20;3.55;;;;;;;16.67;100.00;100497.25;5232289;28;20123;-74
2023/08/06 08:17:50;;;;;;;8.17;3.70;;;;;;;16.63;100.00;100505.63;5233964;28;20488;-73
2023/08/06 08:20:21;;;;;;;5.67;3.43;;;;;;;16.64;100.00;100510.75;5233099;28;20072;-74
2023/08/06 08:22:53;;;;;;;6.00;2.93;;;;;;;16.72;100.00;100512.69;5233115;28;20476;-73
2023/08/06 08:25:24;;;;;;;5.40;3.57;;;;;;;16.67;100.00;100515.75;5232967;28;20053;-74
2023/08/06 08:27:55;;;;;;;5.27;2.67;;;;;;;16.45;100.00;100501.88;5231123;28;20029;-71
2023/08/06 08:30:27;;;;;;;5.03;2.70;;;;;;;16.57;100.00;100515.78;5247843;28;20036;-73
2023/08/06 08:32:58;;;;;;;7.07;3.30;;;;;;;16.61;100.00;100526.06;5244104;28;20489;-72
2023/08/06 08:35:30;;;;;;;6.30;2.77;;;;;;;16.47;100.00;100522.88;5232157;28;20109;-72
2023/08/06 08:38:01;;;;;;;7.80;2.90;;;;;;;16.49;100.00;100526.22;5231097;28;20033;-69
2023/08/06 08:40:33;;;;;;;6.63;2.77;;;;;;;16.63;100.00;100535.53;5228760;28;20025;-73
2023/08/06 08:43:05;;;;;;;8.80;2.80;;;;;;;16.52;100.00;100528.59;5232746;28;20037;-74
2023/08/06 08:45:39;;;;;;;7.67;3.00;;;;;;;16.74;100.00;100536.38;5231745;28;20038;-72
2023/08/06 08:48:13;;;;;;;;;;;;;;;17.20;100.00;100530.47;5230162;28;20033;-73
2023/08/06 08:50:46;;;;;;;8.53;2.77;;;;;;;16.64;100.00;100536.34;5232945;28;20557;-73
2023/08/06 08:53:18;;;;;;;7.13;2.90;;;;;;;16.64;100.00;100539.84;5236041;28;20064;-74
2023/08/06 08:55:50;;;;;;;6.73;2.87;;;;;;;16.57;100.00;100538.72;5239810;28;20067;-74
2023/08/06 08:58:21;;;;;;;6.60;2.70;;;;;;;16.57;100.00;100547.50;5233182;28;20483;-71
2023/08/06 09:00:53;;;;;;;7.37;2.90;;;;;;;16.57;100.00;100541.38;5231118;28;20025;-72
2023/08/06 09:03:25;;;;;;;7.90;3.23;;;;;;;16.45;100.00;100544.16;5232796;28;20092;-73
2023/08/06 09:05:59;;;;;;;7.67;3.80;;;;;;;16.63;100.00;100559.34;5229975;28;20057;-72
2023/08/06 09:08:34;;;;;;;;;;;;;;;17.06;100.00;100566.94;5219918;28;20022;-73
2023/08/06 09:11:10;;;;;;;9.07;3.97;;;;;;;16.63;100.00;100575.19;5230505;28;19917;-73
2023/08/06 09:13:42;;;;;;;9.70;3.37;;;;;;;16.52;100.00;100570.03;5230905;28;20071;-72
2023/08/06 09:16:13;;;;;;;8.63;3.77;;;;;;;16.54;100.00;100578.66;5229562;28;20527;-74
2023/08/06 09:18:44;;;;;;;8.97;3.50;;;;;;;16.54;100.00;100583.94;5232700;28;20641;-76
2023/08/06 09:21:16;;;;;;;6.33;2.97;;;;;;;16.47;100.00;100581.03;5231707;28;20091;-74
2023/08/06 09:23:47;;;;;;;9.13;3.67;;;;;;;16.52;100.00;100592.03;5232546;28;20029;-74
2023/08/06 09:26:18;;;;;;;7.57;3.50;;;;;;;16.53;100.00;100596.31;5231468;28;20065;-76
2023/08/06 09:28:52;;;;;;;7.00;3.70;;;;;;;16.61;100.00;100590.38;5228599;28;20056;-75
2023/08/06 09:31:23;;;;;;;7.78;3.72;;;;;;;16.67;100.00;100608.31;5228545;28;20456;-75
2023/08/06 09:33:55;;;;;;;9.90;4.03;;;;;;;16.65;100.00;100610.25;5230482;28;20160;-75
2023/08/06 09:36:27;;;;;;;9.40;3.23;;;;;;;16.60;100.00;100615.13;5227393;28;20029;-73
2023/08/06 09:38:58;;;;;;;7.60;3.97;;;;;;;16.66;100.00;100619.03;5226191;28;20025;-75
2023/08/06 09:41:29;;;;;;;7.77;3.97;;;;;;;16.51;100.00;100605.38;5227018;28;20025;-75
2023/08/06 09:44:01;;;;;;;6.47;3.37;;;;;;;16.65;100.00;100622.66;5227368;28;20033;-75
2023/08/06 09:46:33;;;;;;;10.90;4.07;;;;;;;16.64;100.00;100620.97;5227641;28;20472;-75
2023/08/06 09:49:07;;;;;;;6.13;3.97;;;;;;;16.62;100.00;100623.75;5229076;28;20084;-76
2023/08/06 09:51:39;;;;;;;10.87;3.37;;;;;;;16.56;100.00;100625.13;5230304;28;20538;-76
2023/08/06 09:54:12;;;;;;;7.93;3.50;;;;;;;16.37;100.00;100633.84;5231146;28;20026;-72
2023/08/06 09:56:44;;;;;;;8.63;3.73;;;;;;;16.51;100.00;100637.09;5225506;28;20038;-74
2023/08/06 09:59:16;;;;;;;6.27;3.97;;;;;;;16.58;100.00;100640.88;5210191;28;20549;-73
2023/08/06 10:01:48;;;;;;;7.70;3.87;;;;;;;16.57;100.00;100636.53;5210113;28;20397;-74
2023/08/06 10:04:20;;;;;;;4.53;3.37;;;;;;;16.40;100.00;100630.97;5210481;28;20092;-72
2023/08/06 10:06:52;;;;;;;10.80;4.80;;;;;;;16.45;100.00;100631.38;5210733;28;20477;-75
2023/08/06 10:09:24;;;;;;;10.17;3.90;;;;;;;16.45;100.00;100634.03;5213950;28;20058;-74
2023/08/06 10:11:57;;;;;;;6.30;3.37;;;;;;;16.60;100.00;100646.84;5218696;28;20072;-75
2023/08/06 10:14:33;;;;;;;5.95;3.85;;;;;;;16.58;100.00;100638.22;5219452;28;20032;-72
2023/08/06 10:17:04;;;;;;;8.93;3.90;;;;;;;16.59;100.00;100637.25;5223750;28;20439;-73
2023/08/06 10:19:36;;;;;;;9.03;3.80;;;;;;;16.48;100.00;100648.75;5229421;28;20025;-71
2023/08/06 10:22:17;;;;;;;7.90;3.83;;;;;;;16.67;100.00;100653.25;5217627;28;20029;-73
2023/08/06 10:24:56;;;;;;;5.83;3.40;;;;;;;16.65;100.00;100644.63;5215125;28;20030;-71
2023/08/06 10:27:52;;;;;;;7.63;3.30;;;;;;;16.73;100.00;100648.38;5214682;28;20034;-71
2023/08/06 10:30:32;;;;;;;7.90;4.20;;;;;;;16.58;100.00;100654.09;5217451;28;20029;-70
2023/08/06 10:33:04;;;;;;;6.00;3.93;;;;;;;16.59;100.00;100650.47;5235426;28;20044;-71
2023/08/06 10:35:38;;;;;;;8.40;3.07;;;;;;;16.61;100.00;100653.81;5235219;28;20029;-71
2023/08/06 10:38:13;;;;;;;8.75;3.40;;;;;;;16.72;100.00;100649.38;5227561;28;20046;-74
2023/08/06 10:40:54;;;;;;;7.90;3.37;;;;;;;16.82;100.00;100650.22;5234538;28;20033;-74
2023/08/06 10:43:29;;;;;;;9.63;4.07;;;;;;;16.69;100.00;100656.59;5233805;28;20063;-72
2023/08/06 10:46:09;;;;;;;5.13;3.53;;;;;;;16.82;100.00;100647.56;5231642;28;20032;-71
2023/08/06 10:48:45;;;;;;;5.37;3.23;;;;;;;16.69;100.00;100655.75;5235169;28;20040;-73
2023/08/06 10:51:16;;;;;;;5.17;3.00;;;;;;;16.72;100.00;100663.41;5234639;28;20018;-73
2023/08/06 10:53:49;;;;;;;9.07;3.20;;;;;;;16.78;100.00;100665.53;5233967;28;20036;-74
2023/08/06 10:56:23;;;;;;;6.77;3.20;;;;;;;16.82;100.00;100666.09;5214602;28;20503;-75
2023/08/06 10:58:56;;;;;;;7.45;3.53;;;;;;;16.85;100.00;100660.50;5228011;28;20484;-73
2023/08/06 11:01:29;;;;;;;6.30;3.70;;;;;;;16.88;100.00;100662.88;5211794;28;20030;-73
2023/08/06 11:04:02;;;;;;;7.60;3.60;;;;;;;16.96;100.00;100675.44;5224347;28;20030;-71
2023/08/06 11:06:34;;;;;;;8.20;3.37;;;;;;;16.84;100.00;100672.09;5215842;28;20297;-75
2023/08/06 11:09:05;;;;;;;6.43;3.53;;;;;;;16.89;100.00;100669.84;5213664;28;20030;-74
2023/08/06 11:11:37;;;;;;;5.33;3.27;;;;;;;16.96;100.00;100672.78;5225559;28;20057;-74
2023/08/06 11:14:15;;;;;;;9.37;4.23;;;;;;;17.07;100.00;100674.44;5233480;28;20030;-74
2023/08/06 11:16:46;;;;;;;6.80;2.60;;;;;;;16.98;100.00;100667.34;5232041;28;20032;-73
2023/08/06 11:19:18;;;;;;;12.23;4.63;;;;;;;16.98;100.00;100677.94;5225285;28;20018;-75
2023/08/06 11:21:51;;;;;;;6.43;3.40;;;;;;;17.12;100.00;100677.53;5212496;28;20168;-75
2023/08/06 11:24:25;;;;;;;6.80;3.67;;;;;;;17.24;100.00;100685.34;5211589;28;20026;-76
2023/08/06 11:26:57;;;;;;;;;;;;;;;17.64;100.00;100675.53;5218520;28;20022;-75
2023/08/06 11:29:28;;;;;;;6.23;3.20;;;;;;;17.25;100.00;100677.25;5231447;28;20386;-77
2023/08/06 11:32:06;;;;;;;4.07;2.97;;;;;;;17.22;100.00;100677.53;5233454;28;20033;-74
2023/08/06 11:34:38;;;;;;;6.07;2.90;;;;;;;17.19;100.00;100682.28;5232804;28;20388;-76
2023/08/06 11:37:10;;;;;;;8.53;3.57;;;;;;;17.00;100.00;100676.00;5231737;28;20033;-72
2023/08/06 11:39:47;;;;;;;5.50;3.53;;;;;;;17.31;100.00;100673.22;5232434;28;20056;-72